sensor_id;sensor_type;location;lat;lon;timestamp;temperature;humidity
22471;DHT22;11402;51.374;6.594;2022-07-18T00:00:59;17.00;99.90
22471;DHT22;11402;51.374;6.594;2022-07-18T00:03:25;16.90;99.90
22471;DHT22;11402;51.374;6.594;2022-07-18T00:05:51;16.80;99.90
22471;DHT22;11402;51.374;6.594;2022-07-18T00:08:16;16.90;99.90
22471;DHT22;11402;51.374;6.594;2022-07-18T00:10:42;16.90;99.90
22471;DHT22;11402;51.374;6.594;2022-07-18T00:13:08;16.90;99.90
22471;DHT22;11402;51.374;6.594;2022-07-18T00:15:35;16.70;99.90
22471;DHT22;11402;51.374;6.594;2022-07-18T00:18:02;16.70;99.90
22471;DHT22;11402;51.374;6.594;2022-07-18T00:20:27;16.80;99.90
22471;DHT22;11402;51.374;6.594;2022-07-18T00:22:53;16.80;99.90
22471;DHT22;11402;51.374;6.594;2022-07-18T00:25:19;16.70;99.90
22471;DHT22;11402;51.374;6.594;2022-07-18T00:27:45;16.80;99.90
22471;DHT22;11402;51.374;6.594;2022-07-18T00:30:10;16.80;99.90
22471;DHT22;11402;51.374;6.594;2022-07-18T00:32:36;16.60;99.90
22471;DHT22;11402;51.374;6.594;2022-07-18T00:35:02;16.80;99.90
22471;DHT22;11402;51.374;6.594;2022-07-18T00:37:27;16.70;99.90
22471;DHT22;11402;51.374;6.594;2022-07-18T00:39:53;16.60;99.90
22471;DHT22;11402;51.374;6.594;2022-07-18T00:42:20;16.60;99.90
22471;DHT22;11402;51.374;6.594;2022-07-18T00:44:45;16.60;99.90
22471;DHT22;11402;51.374;6.594;2022-07-18T00:47:11;16.60;99.90
22471;DHT22;11402;51.374;6.594;2022-07-18T00:49:37;16.50;99.90
22471;DHT22;11402;51.374;6.594;2022-07-18T00:52:03;16.50;99.90
22471;DHT22;11402;51.374;6.594;2022-07-18T00:54:29;16.40;99.90
22471;DHT22;11402;51.374;6.594;2022-07-18T00:56:58;16.40;99.90
22471;DHT22;11402;51.374;6.594;2022-07-18T00:59:24;16.40;99.90
22471;DHT22;11402;51.374;6.594;2022-07-18T01:02:10;16.40;99.90
22471;DHT22;11402;51.374;6.594;2022-07-18T01:04:36;16.30;99.90
22471;DHT22;11402;51.374;6.594;2022-07-18T01:07:02;16.30;99.90
22471;DHT22;11402;51.374;6.594;2022-07-18T01:09:27;16.30;99.90
22471;DHT22;11402;51.374;6.594;2022-07-18T01:11:53;16.30;99.90
22471;DHT22;11402;51.374;6.594;2022-07-18T01:14:19;16.20;99.90
22471;DHT22;11402;51.374;6.594;2022-07-18T01:16:44;16.30;99.90
22471;DHT22;11402;51.374;6.594;2022-07-18T01:19:10;16.20;99.90
22471;DHT22;11402;51.374;6.594;2022-07-18T01:21:37;16.20;99.90
22471;DHT22;11402;51.374;6.594;2022-07-18T01:24:03;16.20;99.90
22471;DHT22;11402;51.374;6.594;2022-07-18T01:26:29;16.20;99.90
22471;DHT22;11402;51.374;6.594;2022-07-18T01:28:54;16.10;99.90
22471;DHT22;11402;51.374;6.594;2022-07-18T01:31:20;16.10;99.90
22471;DHT22;11402;51.374;6.594;2022-07-18T01:33:46;16.20;99.90
22471;DHT22;11402;51.374;6.594;2022-07-18T01:36:12;16.20;99.90
22471;DHT22;11402;51.374;6.594;2022-07-18T01:38:38;16.10;99.90
22471;DHT22;11402;51.374;6.594;2022-07-18T01:41:04;16.10;99.90
22471;DHT22;11402;51.374;6.594;2022-07-18T01:43:30;16.00;99.90
22471;DHT22;11402;51.374;6.594;2022-07-18T01:45:56;15.90;99.90
22471;DHT22;11402;51.374;6.594;2022-07-18T01:48:22;15.90;99.90
22471;DHT22;11402;51.374;6.594;2022-07-18T01:50:49;15.80;99.90
22471;DHT22;11402;51.374;6.594;2022-07-18T01:53:14;15.80;99.90
22471;DHT22;11402;51.374;6.594;2022-07-18T01:55:40;15.70;99.90
22471;DHT22;11402;51.374;6.594;2022-07-18T01:58:05;15.80;99.90
22471;DHT22;11402;51.374;6.594;2022-07-18T02:00:31;15.80;99.90
22471;DHT22;11402;51.374;6.594;2022-07-18T02:02:57;15.80;99.90
22471;DHT22;11402;51.374;6.594;2022-07-18T02:05:22;15.80;99.90
22471;DHT22;11402;51.374;6.594;2022-07-18T02:07:48;15.80;99.90
22471;DHT22;11402;51.374;6.594;2022-07-18T02:10:16;15.70;99.90
22471;DHT22;11402;51.374;6.594;2022-07-18T02:12:43;15.70;99.90
22471;DHT22;11402;51.374;6.594;2022-07-18T02:15:10;15.70;99.90
22471;DHT22;11402;51.374;6.594;2022-07-18T02:17:36;15.70;99.90
22471;DHT22;11402;51.374;6.594;2022-07-18T02:20:04;15.60;99.90
22471;DHT22;11402;51.374;6.594;2022-07-18T02:22:30;15.60;99.90
22471;DHT22;11402;51.374;6.594;2022-07-18T02:24:55;15.70;99.90
22471;DHT22;11402;51.374;6.594;2022-07-18T02:27:21;15.60;99.90
22471;DHT22;11402;51.374;6.594;2022-07-18T02:29:47;15.50;99.90
22471;DHT22;11402;51.374;6.594;2022-07-18T02:32:12;15.40;99.90
22471;DHT22;11402;51.374;6.594;2022-07-18T02:34:38;15.40;99.90
22471;DHT22;11402;51.374;6.594;2022-07-18T02:37:04;15.40;99.90
22471;DHT22;11402;51.374;6.594;2022-07-18T02:39:29;15.40;99.90
22471;DHT22;11402;51.374;6.594;2022-07-18T02:41:55;15.40;99.90
22471;DHT22;11402;51.374;6.594;2022-07-18T02:44:21;15.40;99.90
22471;DHT22;11402;51.374;6.594;2022-07-18T02:46:47;15.40;99.90
22471;DHT22;11402;51.374;6.594;2022-07-18T02:49:13;15.20;99.90
22471;DHT22;11402;51.374;6.594;2022-07-18T02:51:53;15.30;99.90
22471;DHT22;11402;51.374;6.594;2022-07-18T02:54:20;15.30;99.90
22471;DHT22;11402;51.374;6.594;2022-07-18T02:56:46;15.30;99.90
22471;DHT22;11402;51.374;6.594;2022-07-18T02:59:11;15.20;99.90
22471;DHT22;11402;51.374;6.594;2022-07-18T03:01:37;15.30;99.90
22471;DHT22;11402;51.374;6.594;2022-07-18T03:04:02;15.20;99.90
22471;DHT22;11402;51.374;6.594;2022-07-18T03:06:28;15.20;99.90
22471;DHT22;11402;51.374;6.594;2022-07-18T03:08:54;15.20;99.90
22471;DHT22;11402;51.374;6.594;2022-07-18T03:11:19;15.20;99.90
22471;DHT22;11402;51.374;6.594;2022-07-18T03:13:45;15.10;99.90
22471;DHT22;11402;51.374;6.594;2022-07-18T03:16:10;15.20;99.90
22471;DHT22;11402;51.374;6.594;2022-07-18T03:18:36;15.10;99.90
22471;DHT22;11402;51.374;6.594;2022-07-18T03:21:01;15.20;99.90
22471;DHT22;11402;51.374;6.594;2022-07-18T03:23:27;15.10;99.90
22471;DHT22;11402;51.374;6.594;2022-07-18T03:25:53;15.10;99.90
22471;DHT22;11402;51.374;6.594;2022-07-18T03:28:18;15.10;99.90
22471;DHT22;11402;51.374;6.594;2022-07-18T03:30:44;15.10;99.90
22471;DHT22;11402;51.374;6.594;2022-07-18T03:33:09;15.10;99.90
22471;DHT22;11402;51.374;6.594;2022-07-18T03:35:35;15.00;99.90
22471;DHT22;11402;51.374;6.594;2022-07-18T03:38:01;15.00;99.90
22471;DHT22;11402;51.374;6.594;2022-07-18T03:40:26;15.10;99.90
22471;DHT22;11402;51.374;6.594;2022-07-18T03:42:52;15.00;99.90
22471;DHT22;11402;51.374;6.594;2022-07-18T03:45:17;14.90;99.90
22471;DHT22;11402;51.374;6.594;2022-07-18T03:47:43;15.00;99.90
22471;DHT22;11402;51.374;6.594;2022-07-18T03:50:09;14.90;99.90
22471;DHT22;11402;51.374;6.594;2022-07-18T03:52:35;14.90;99.90
22471;DHT22;11402;51.374;6.594;2022-07-18T03:55:00;14.90;99.90
22471;DHT22;11402;51.374;6.594;2022-07-18T03:57:27;14.90;99.90
22471;DHT22;11402;51.374;6.594;2022-07-18T03:59:53;14.80;99.90
22471;DHT22;11402;51.374;6.594;2022-07-18T04:02:18;14.80;99.90
22471;DHT22;11402;51.374;6.594;2022-07-18T04:04:44;14.80;99.90
22471;DHT22;11402;51.374;6.594;2022-07-18T04:07:09;14.90;99.90
22471;DHT22;11402;51.374;6.594;2022-07-18T04:09:35;14.90;99.90
22471;DHT22;11402;51.374;6.594;2022-07-18T04:12:01;14.90;99.90
22471;DHT22;11402;51.374;6.594;2022-07-18T04:14:26;15.00;99.90
22471;DHT22;11402;51.374;6.594;2022-07-18T04:16:52;14.90;99.90
22471;DHT22;11402;51.374;6.594;2022-07-18T04:19:17;14.90;99.90
22471;DHT22;11402;51.374;6.594;2022-07-18T04:21:43;14.90;99.90
22471;DHT22;11402;51.374;6.594;2022-07-18T04:24:10;14.90;99.90
22471;DHT22;11402;51.374;6.594;2022-07-18T04:26:35;15.00;99.90
22471;DHT22;11402;51.374;6.594;2022-07-18T04:29:01;15.00;99.90
22471;DHT22;11402;51.374;6.594;2022-07-18T04:31:26;15.10;99.90
22471;DHT22;11402;51.374;6.594;2022-07-18T04:33:52;15.10;99.90
22471;DHT22;11402;51.374;6.594;2022-07-18T04:36:17;15.00;99.90
22471;DHT22;11402;51.374;6.594;2022-07-18T04:38:43;15.10;99.90
22471;DHT22;11402;51.374;6.594;2022-07-18T04:41:09;15.10;99.90
22471;DHT22;11402;51.374;6.594;2022-07-18T04:43:35;15.10;99.90
22471;DHT22;11402;51.374;6.594;2022-07-18T04:46:01;15.20;99.90
22471;DHT22;11402;51.374;6.594;2022-07-18T04:48:26;15.30;99.90
22471;DHT22;11402;51.374;6.594;2022-07-18T04:50:52;15.30;99.90
22471;DHT22;11402;51.374;6.594;2022-07-18T04:53:17;15.40;99.90
22471;DHT22;11402;51.374;6.594;2022-07-18T04:55:43;15.40;99.90
22471;DHT22;11402;51.374;6.594;2022-07-18T04:58:09;15.40;99.90
22471;DHT22;11402;51.374;6.594;2022-07-18T05:00:34;15.60;99.90
22471;DHT22;11402;51.374;6.594;2022-07-18T05:03:00;15.60;99.90
22471;DHT22;11402;51.374;6.594;2022-07-18T05:05:27;15.70;99.90
22471;DHT22;11402;51.374;6.594;2022-07-18T05:07:53;15.90;99.90
22471;DHT22;11402;51.374;6.594;2022-07-18T05:10:21;16.20;99.90
22471;DHT22;11402;51.374;6.594;2022-07-18T05:12:49;16.40;99.90
22471;DHT22;11402;51.374;6.594;2022-07-18T05:15:16;16.50;99.90
22471;DHT22;11402;51.374;6.594;2022-07-18T05:17:43;16.60;99.90
22471;DHT22;11402;51.374;6.594;2022-07-18T05:20:14;16.70;99.90
22471;DHT22;11402;51.374;6.594;2022-07-18T05:22:39;16.80;99.90
22471;DHT22;11402;51.374;6.594;2022-07-18T05:25:06;16.90;99.90
22471;DHT22;11402;51.374;6.594;2022-07-18T05:27:36;17.00;99.90
22471;DHT22;11402;51.374;6.594;2022-07-18T05:30:03;17.20;99.90
22471;DHT22;11402;51.374;6.594;2022-07-18T05:32:29;17.20;99.90
22471;DHT22;11402;51.374;6.594;2022-07-18T05:34:55;17.30;99.90
22471;DHT22;11402;51.374;6.594;2022-07-18T05:37:20;17.40;99.90
22471;DHT22;11402;51.374;6.594;2022-07-18T05:39:46;17.60;99.90
22471;DHT22;11402;51.374;6.594;2022-07-18T05:42:12;17.70;99.90
22471;DHT22;11402;51.374;6.594;2022-07-18T05:44:37;18.00;99.90
22471;DHT22;11402;51.374;6.594;2022-07-18T05:47:03;18.20;99.90
22471;DHT22;11402;51.374;6.594;2022-07-18T05:49:28;18.30;99.90
22471;DHT22;11402;51.374;6.594;2022-07-18T05:51:54;18.50;99.90
22471;DHT22;11402;51.374;6.594;2022-07-18T05:54:20;18.50;99.90
22471;DHT22;11402;51.374;6.594;2022-07-18T05:56:50;18.60;99.90
22471;DHT22;11402;51.374;6.594;2022-07-18T05:59:16;18.70;99.90
22471;DHT22;11402;51.374;6.594;2022-07-18T06:01:42;18.80;99.90
22471;DHT22;11402;51.374;6.594;2022-07-18T06:04:08;18.90;99.90
22471;DHT22;11402;51.374;6.594;2022-07-18T06:06:34;19.00;99.90
22471;DHT22;11402;51.374;6.594;2022-07-18T06:08:59;19.10;99.90
22471;DHT22;11402;51.374;6.594;2022-07-18T06:11:25;19.20;99.90
22471;DHT22;11402;51.374;6.594;2022-07-18T06:13:51;19.30;99.90
22471;DHT22;11402;51.374;6.594;2022-07-18T06:16:16;19.40;99.90
22471;DHT22;11402;51.374;6.594;2022-07-18T06:18:42;19.60;99.90
22471;DHT22;11402;51.374;6.594;2022-07-18T06:21:07;19.60;99.90
22471;DHT22;11402;51.374;6.594;2022-07-18T06:23:33;19.80;99.90
22471;DHT22;11402;51.374;6.594;2022-07-18T06:26:01;19.90;99.90
22471;DHT22;11402;51.374;6.594;2022-07-18T06:28:26;20.00;99.90
22471;DHT22;11402;51.374;6.594;2022-07-18T06:30:54;20.00;99.90
22471;DHT22;11402;51.374;6.594;2022-07-18T06:33:20;20.10;99.90
22471;DHT22;11402;51.374;6.594;2022-07-18T06:35:47;20.40;99.90
22471;DHT22;11402;51.374;6.594;2022-07-18T06:38:13;20.40;99.90
22471;DHT22;11402;51.374;6.594;2022-07-18T06:40:39;20.40;99.90
22471;DHT22;11402;51.374;6.594;2022-07-18T06:43:04;20.50;99.90
22471;DHT22;11402;51.374;6.594;2022-07-18T06:45:31;20.70;99.90
22471;DHT22;11402;51.374;6.594;2022-07-18T06:47:57;20.80;99.90
22471;DHT22;11402;51.374;6.594;2022-07-18T06:50:23;20.90;99.90
22471;DHT22;11402;51.374;6.594;2022-07-18T06:52:49;21.10;99.90
22471;DHT22;11402;51.374;6.594;2022-07-18T06:55:14;21.20;99.90
22471;DHT22;11402;51.374;6.594;2022-07-18T06:57:41;21.20;99.90
22471;DHT22;11402;51.374;6.594;2022-07-18T07:00:08;21.30;99.90
22471;DHT22;11402;51.374;6.594;2022-07-18T07:02:39;21.40;99.90
22471;DHT22;11402;51.374;6.594;2022-07-18T07:05:05;21.60;99.90
22471;DHT22;11402;51.374;6.594;2022-07-18T07:07:31;21.60;99.90
22471;DHT22;11402;51.374;6.594;2022-07-18T07:09:56;21.80;99.90
22471;DHT22;11402;51.374;6.594;2022-07-18T07:12:22;21.80;99.90
22471;DHT22;11402;51.374;6.594;2022-07-18T07:14:47;21.80;99.90
22471;DHT22;11402;51.374;6.594;2022-07-18T07:17:13;22.00;99.90
22471;DHT22;11402;51.374;6.594;2022-07-18T07:19:38;22.20;99.90
22471;DHT22;11402;51.374;6.594;2022-07-18T07:22:04;22.30;99.90
22471;DHT22;11402;51.374;6.594;2022-07-18T07:24:29;22.30;99.90
22471;DHT22;11402;51.374;6.594;2022-07-18T07:26:55;22.30;99.90
22471;DHT22;11402;51.374;6.594;2022-07-18T07:29:21;22.40;99.90
22471;DHT22;11402;51.374;6.594;2022-07-18T07:31:46;22.40;99.90
22471;DHT22;11402;51.374;6.594;2022-07-18T07:34:12;22.50;99.90
22471;DHT22;11402;51.374;6.594;2022-07-18T07:36:37;22.50;99.90
22471;DHT22;11402;51.374;6.594;2022-07-18T07:39:03;22.60;99.90
22471;DHT22;11402;51.374;6.594;2022-07-18T07:41:28;22.90;99.90
22471;DHT22;11402;51.374;6.594;2022-07-18T07:43:54;23.10;99.90
22471;DHT22;11402;51.374;6.594;2022-07-18T07:46:20;23.00;99.90
22471;DHT22;11402;51.374;6.594;2022-07-18T07:48:45;23.00;99.90
22471;DHT22;11402;51.374;6.594;2022-07-18T07:51:13;23.20;99.90
22471;DHT22;11402;51.374;6.594;2022-07-18T07:53:39;23.40;99.90
22471;DHT22;11402;51.374;6.594;2022-07-18T07:56:04;23.40;99.90
22471;DHT22;11402;51.374;6.594;2022-07-18T07:58:30;23.50;99.90
22471;DHT22;11402;51.374;6.594;2022-07-18T08:00:56;23.50;99.90
22471;DHT22;11402;51.374;6.594;2022-07-18T08:03:21;23.50;99.90
22471;DHT22;11402;51.374;6.594;2022-07-18T08:05:50;23.60;99.90
22471;DHT22;11402;51.374;6.594;2022-07-18T08:08:18;23.90;99.90
22471;DHT22;11402;51.374;6.594;2022-07-18T08:10:44;24.00;99.90
22471;DHT22;11402;51.374;6.594;2022-07-18T08:13:11;23.90;99.90
22471;DHT22;11402;51.374;6.594;2022-07-18T08:15:37;23.90;99.90
22471;DHT22;11402;51.374;6.594;2022-07-18T08:18:03;24.00;99.90
22471;DHT22;11402;51.374;6.594;2022-07-18T08:20:28;24.10;99.90
22471;DHT22;11402;51.374;6.594;2022-07-18T08:23:06;24.20;99.90
22471;DHT22;11402;51.374;6.594;2022-07-18T08:25:35;24.30;99.90
22471;DHT22;11402;51.374;6.594;2022-07-18T08:28:01;24.30;99.90
22471;DHT22;11402;51.374;6.594;2022-07-18T08:30:27;24.40;99.90
22471;DHT22;11402;51.374;6.594;2022-07-18T08:32:53;24.60;99.90
22471;DHT22;11402;51.374;6.594;2022-07-18T08:35:19;24.80;99.90
22471;DHT22;11402;51.374;6.594;2022-07-18T08:37:45;24.80;99.90
22471;DHT22;11402;51.374;6.594;2022-07-18T08:40:11;24.80;99.90
22471;DHT22;11402;51.374;6.594;2022-07-18T08:42:37;25.00;99.90
22471;DHT22;11402;51.374;6.594;2022-07-18T08:45:04;25.00;99.90
22471;DHT22;11402;51.374;6.594;2022-07-18T08:47:30;25.10;99.90
22471;DHT22;11402;51.374;6.594;2022-07-18T08:49:57;25.10;99.90
22471;DHT22;11402;51.374;6.594;2022-07-18T08:52:23;25.00;99.90
22471;DHT22;11402;51.374;6.594;2022-07-18T08:54:49;25.10;99.90
22471;DHT22;11402;51.374;6.594;2022-07-18T08:57:15;25.10;99.90
22471;DHT22;11402;51.374;6.594;2022-07-18T08:59:41;25.30;99.90
22471;DHT22;11402;51.374;6.594;2022-07-18T09:02:09;25.50;99.90
22471;DHT22;11402;51.374;6.594;2022-07-18T09:04:40;25.30;99.90
22471;DHT22;11402;51.374;6.594;2022-07-18T09:07:07;25.30;99.90
22471;DHT22;11402;51.374;6.594;2022-07-18T09:09:37;25.40;99.90
22471;DHT22;11402;51.374;6.594;2022-07-18T09:12:05;25.40;99.90
22471;DHT22;11402;51.374;6.594;2022-07-18T09:14:32;25.60;99.90
22471;DHT22;11402;51.374;6.594;2022-07-18T09:17:08;25.80;99.90
22471;DHT22;11402;51.374;6.594;2022-07-18T09:19:35;25.80;99.90
22471;DHT22;11402;51.374;6.594;2022-07-18T09:22:20;25.90;99.90
22471;DHT22;11402;51.374;6.594;2022-07-18T09:25:10;26.00;99.90
22471;DHT22;11402;51.374;6.594;2022-07-18T09:27:47;26.20;99.90
22471;DHT22;11402;51.374;6.594;2022-07-18T09:30:30;26.10;99.90
22471;DHT22;11402;51.374;6.594;2022-07-18T09:35:37;26.40;99.90
22471;DHT22;11402;51.374;6.594;2022-07-18T09:38:08;26.50;99.90
22471;DHT22;11402;51.374;6.594;2022-07-18T09:40:36;26.70;99.90
22471;DHT22;11402;51.374;6.594;2022-07-18T09:43:04;26.50;99.90
22471;DHT22;11402;51.374;6.594;2022-07-18T09:45:38;26.60;99.90
22471;DHT22;11402;51.374;6.594;2022-07-18T09:48:09;26.60;99.90
22471;DHT22;11402;51.374;6.594;2022-07-18T09:50:36;26.90;99.90
22471;DHT22;11402;51.374;6.594;2022-07-18T09:53:06;26.80;99.90
22471;DHT22;11402;51.374;6.594;2022-07-18T09:55:32;26.90;99.90
22471;DHT22;11402;51.374;6.594;2022-07-18T09:58:04;27.10;99.90
22471;DHT22;11402;51.374;6.594;2022-07-18T10:00:32;27.00;99.90
22471;DHT22;11402;51.374;6.594;2022-07-18T10:02:58;27.10;99.90
22471;DHT22;11402;51.374;6.594;2022-07-18T10:05:33;27.10;99.90
22471;DHT22;11402;51.374;6.594;2022-07-18T10:08:01;27.30;99.90
22471;DHT22;11402;51.374;6.594;2022-07-18T10:10:28;27.30;99.90
22471;DHT22;11402;51.374;6.594;2022-07-18T10:12:56;27.50;99.90
22471;DHT22;11402;51.374;6.594;2022-07-18T10:15:24;27.30;99.90
22471;DHT22;11402;51.374;6.594;2022-07-18T10:17:50;27.30;99.90
22471;DHT22;11402;51.374;6.594;2022-07-18T10:20:16;27.50;99.90
22471;DHT22;11402;51.374;6.594;2022-07-18T10:22:43;27.60;99.90
22471;DHT22;11402;51.374;6.594;2022-07-18T10:25:13;27.60;99.90
22471;DHT22;11402;51.374;6.594;2022-07-18T10:28:09;27.60;99.90
22471;DHT22;11402;51.374;6.594;2022-07-18T10:58:55;28.20;99.90
22471;DHT22;11402;51.374;6.594;2022-07-18T11:01:20;28.10;99.90
22471;DHT22;11402;51.374;6.594;2022-07-18T11:03:48;28.10;99.90
22471;DHT22;11402;51.374;6.594;2022-07-18T11:06:16;28.80;99.90
22471;DHT22;11402;51.374;6.594;2022-07-18T11:08:42;28.40;99.90
22471;DHT22;11402;51.374;6.594;2022-07-18T11:11:09;28.30;99.90
22471;DHT22;11402;51.374;6.594;2022-07-18T11:13:40;28.50;99.90
22471;DHT22;11402;51.374;6.594;2022-07-18T11:16:15;28.60;99.90
22471;DHT22;11402;51.374;6.594;2022-07-18T11:23:48;28.50;99.90
22471;DHT22;11402;51.374;6.594;2022-07-18T11:46:17;29.10;99.90
22471;DHT22;11402;51.374;6.594;2022-07-18T11:48:45;29.10;99.90
22471;DHT22;11402;51.374;6.594;2022-07-18T12:01:04;29.30;99.30
22471;DHT22;11402;51.374;6.594;2022-07-18T12:03:30;29.50;99.90
22471;DHT22;11402;51.374;6.594;2022-07-18T12:05:56;29.40;99.90
22471;DHT22;11402;51.374;6.594;2022-07-18T12:08:36;29.40;99.90
22471;DHT22;11402;51.374;6.594;2022-07-18T12:11:26;29.20;99.90
22471;DHT22;11402;51.374;6.594;2022-07-18T12:13:55;29.30;99.90
22471;DHT22;11402;51.374;6.594;2022-07-18T12:18:56;29.20;99.90
22471;DHT22;11402;51.374;6.594;2022-07-18T12:21:21;29.10;99.90
22471;DHT22;11402;51.374;6.594;2022-07-18T12:23:47;29.20;99.90
22471;DHT22;11402;51.374;6.594;2022-07-18T12:26:27;29.30;99.90
22471;DHT22;11402;51.374;6.594;2022-07-18T12:29:06;29.30;99.90
22471;DHT22;11402;51.374;6.594;2022-07-18T12:31:41;29.40;99.90
22471;DHT22;11402;51.374;6.594;2022-07-18T12:34:08;29.50;99.90
22471;DHT22;11402;51.374;6.594;2022-07-18T12:36:34;29.40;99.90
22471;DHT22;11402;51.374;6.594;2022-07-18T12:39:00;29.20;99.90
22471;DHT22;11402;51.374;6.594;2022-07-18T12:41:29;29.30;99.90
22471;DHT22;11402;51.374;6.594;2022-07-18T12:43:54;29.30;99.90
22471;DHT22;11402;51.374;6.594;2022-07-18T12:46:20;29.40;99.90
22471;DHT22;11402;51.374;6.594;2022-07-18T12:48:45;29.50;99.90
22471;DHT22;11402;51.374;6.594;2022-07-18T12:51:11;29.60;99.90
22471;DHT22;11402;51.374;6.594;2022-07-18T12:53:39;29.70;99.90
22471;DHT22;11402;51.374;6.594;2022-07-18T12:56:05;29.50;99.90
22471;DHT22;11402;51.374;6.594;2022-07-18T12:58:31;29.50;99.90
22471;DHT22;11402;51.374;6.594;2022-07-18T13:00:56;29.80;99.90
22471;DHT22;11402;51.374;6.594;2022-07-18T13:03:22;29.70;99.90
22471;DHT22;11402;51.374;6.594;2022-07-18T13:05:48;29.80;99.90
22471;DHT22;11402;51.374;6.594;2022-07-18T13:08:14;29.90;99.90
22471;DHT22;11402;51.374;6.594;2022-07-18T13:10:40;29.80;99.90
22471;DHT22;11402;51.374;6.594;2022-07-18T13:13:08;29.80;99.90
22471;DHT22;11402;51.374;6.594;2022-07-18T13:15:34;29.80;99.90
22471;DHT22;11402;51.374;6.594;2022-07-18T13:18:00;29.90;99.90
22471;DHT22;11402;51.374;6.594;2022-07-18T13:20:26;30.10;99.90
22471;DHT22;11402;51.374;6.594;2022-07-18T13:22:52;30.00;99.90
22471;DHT22;11402;51.374;6.594;2022-07-18T13:25:19;29.90;99.90
22471;DHT22;11402;51.374;6.594;2022-07-18T13:27:45;30.00;99.90
22471;DHT22;11402;51.374;6.594;2022-07-18T13:32:38;30.40;93.40
22471;DHT22;11402;51.374;6.594;2022-07-18T13:42:25;30.10;99.90
22471;DHT22;11402;51.374;6.594;2022-07-18T13:44:50;30.30;99.90
22471;DHT22;11402;51.374;6.594;2022-07-18T13:47:16;30.30;99.90
22471;DHT22;11402;51.374;6.594;2022-07-18T13:49:42;30.40;99.90
22471;DHT22;11402;51.374;6.594;2022-07-18T13:52:08;30.40;99.90
22471;DHT22;11402;51.374;6.594;2022-07-18T13:54:34;30.20;99.90
22471;DHT22;11402;51.374;6.594;2022-07-18T13:57:00;30.10;99.90
22471;DHT22;11402;51.374;6.594;2022-07-18T16:52:27;30.60;83.30
22471;DHT22;11402;51.374;6.594;2022-07-18T16:54:53;30.70;84.00
22471;DHT22;11402;51.374;6.594;2022-07-18T16:57:20;30.50;85.00
22471;DHT22;11402;51.374;6.594;2022-07-18T16:59:47;30.50;87.00
22471;DHT22;11402;51.374;6.594;2022-07-18T17:02:14;30.80;82.30
22471;DHT22;11402;51.374;6.594;2022-07-18T17:04:40;30.80;83.00
22471;DHT22;11402;51.374;6.594;2022-07-18T17:07:06;30.90;82.60
22471;DHT22;11402;51.374;6.594;2022-07-18T17:09:32;31.00;84.00
22471;DHT22;11402;51.374;6.594;2022-07-18T17:11:58;30.90;86.60
22471;DHT22;11402;51.374;6.594;2022-07-18T17:14:24;30.80;85.80
22471;DHT22;11402;51.374;6.594;2022-07-18T17:16:50;30.70;87.90
22471;DHT22;11402;51.374;6.594;2022-07-18T17:19:18;30.20;96.80
22471;DHT22;11402;51.374;6.594;2022-07-18T17:21:43;30.50;99.00
22471;DHT22;11402;51.374;6.594;2022-07-18T17:24:09;30.90;94.90
22471;DHT22;11402;51.374;6.594;2022-07-18T17:26:35;30.90;94.10
22471;DHT22;11402;51.374;6.594;2022-07-18T17:29:01;30.20;93.20
22471;DHT22;11402;51.374;6.594;2022-07-18T17:31:27;30.70;91.60
22471;DHT22;11402;51.374;6.594;2022-07-18T17:33:53;30.80;94.60
22471;DHT22;11402;51.374;6.594;2022-07-18T17:36:20;31.10;94.60
22471;DHT22;11402;51.374;6.594;2022-07-18T17:38:48;30.70;94.80
22471;DHT22;11402;51.374;6.594;2022-07-18T17:41:14;30.90;97.80
22471;DHT22;11402;51.374;6.594;2022-07-18T17:43:40;30.50;92.60
22471;DHT22;11402;51.374;6.594;2022-07-18T17:46:12;30.70;91.70
22471;DHT22;11402;51.374;6.594;2022-07-18T17:48:38;29.90;90.80
22471;DHT22;11402;51.374;6.594;2022-07-18T17:51:05;30.80;91.40
22471;DHT22;11402;51.374;6.594;2022-07-18T17:53:32;30.70;92.00
22471;DHT22;11402;51.374;6.594;2022-07-18T17:55:58;30.70;92.60
22471;DHT22;11402;51.374;6.594;2022-07-18T17:58:23;30.20;96.50
22471;DHT22;11402;51.374;6.594;2022-07-18T18:00:49;31.30;95.10
22471;DHT22;11402;51.374;6.594;2022-07-18T18:03:15;30.10;96.60
22471;DHT22;11402;51.374;6.594;2022-07-18T18:05:43;29.90;99.90
22471;DHT22;11402;51.374;6.594;2022-07-18T18:10:35;30.00;99.90
22471;DHT22;11402;51.374;6.594;2022-07-18T18:13:00;29.80;99.90
22471;DHT22;11402;51.374;6.594;2022-07-18T18:39:59;28.70;99.90
22471;DHT22;11402;51.374;6.594;2022-07-18T18:42:25;28.00;99.00
22471;DHT22;11402;51.374;6.594;2022-07-18T18:44:52;28.60;99.90
22471;DHT22;11402;51.374;6.594;2022-07-18T18:47:18;28.40;99.90
22471;DHT22;11402;51.374;6.594;2022-07-18T18:49:46;28.30;99.90
22471;DHT22;11402;51.374;6.594;2022-07-18T18:52:12;26.70;96.10
22471;DHT22;11402;51.374;6.594;2022-07-18T18:54:40;27.70;99.40
22471;DHT22;11402;51.374;6.594;2022-07-18T18:57:06;27.50;98.70
22471;DHT22;11402;51.374;6.594;2022-07-18T18:59:31;27.60;99.90
22471;DHT22;11402;51.374;6.594;2022-07-18T19:01:57;27.40;99.90
22471;DHT22;11402;51.374;6.594;2022-07-18T19:04:23;27.20;99.90
22471;DHT22;11402;51.374;6.594;2022-07-18T19:06:48;27.10;99.90
22471;DHT22;11402;51.374;6.594;2022-07-18T19:09:14;27.00;99.90
22471;DHT22;11402;51.374;6.594;2022-07-18T19:11:40;27.10;99.90
22471;DHT22;11402;51.374;6.594;2022-07-18T19:14:06;27.00;99.90
22471;DHT22;11402;51.374;6.594;2022-07-18T19:16:31;26.80;99.90
22471;DHT22;11402;51.374;6.594;2022-07-18T19:18:57;26.70;99.90
22471;DHT22;11402;51.374;6.594;2022-07-18T19:21:23;26.60;99.90
22471;DHT22;11402;51.374;6.594;2022-07-18T19:23:49;26.50;99.90
22471;DHT22;11402;51.374;6.594;2022-07-18T19:26:15;26.40;99.90
22471;DHT22;11402;51.374;6.594;2022-07-18T19:28:40;26.20;99.90
22471;DHT22;11402;51.374;6.594;2022-07-18T19:31:06;25.90;99.90
22471;DHT22;11402;51.374;6.594;2022-07-18T19:33:33;25.80;99.90
22471;DHT22;11402;51.374;6.594;2022-07-18T19:35:59;25.70;99.90
22471;DHT22;11402;51.374;6.594;2022-07-18T19:38:24;25.60;99.90
22471;DHT22;11402;51.374;6.594;2022-07-18T19:40:50;25.50;99.90
22471;DHT22;11402;51.374;6.594;2022-07-18T19:43:16;25.50;99.90
22471;DHT22;11402;51.374;6.594;2022-07-18T19:45:42;25.50;99.90
22471;DHT22;11402;51.374;6.594;2022-07-18T19:48:08;25.50;99.90
22471;DHT22;11402;51.374;6.594;2022-07-18T19:50:34;25.40;99.90
22471;DHT22;11402;51.374;6.594;2022-07-18T19:53:00;25.20;99.90
22471;DHT22;11402;51.374;6.594;2022-07-18T19:55:25;25.20;99.90
22471;DHT22;11402;51.374;6.594;2022-07-18T19:57:53;25.00;99.90
22471;DHT22;11402;51.374;6.594;2022-07-18T20:00:18;24.90;99.90
22471;DHT22;11402;51.374;6.594;2022-07-18T20:02:47;24.80;99.90
22471;DHT22;11402;51.374;6.594;2022-07-18T20:05:13;24.80;99.90